sensor_id;sensor_type;location;lat;lon;timestamp;P1;durP1;ratioP1;P2;durP2;ratioP2
1693;SDS011;844;47.058;15.472;2022-10-26T00:01:55;3.43;;;3.13;;
1693;SDS011;844;47.058;15.472;2022-10-26T00:04:25;4.30;;;3.10;;
1693;SDS011;844;47.058;15.472;2022-10-26T00:06:54;2.73;;;2.17;;
1693;SDS011;844;47.058;15.472;2022-10-26T00:09:25;3.20;;;2.90;;
1693;SDS011;844;47.058;15.472;2022-10-26T00:11:54;3.40;;;3.10;;
1693;SDS011;844;47.058;15.472;2022-10-26T00:14:24;3.83;;;3.03;;
1693;SDS011;844;47.058;15.472;2022-10-26T00:16:53;5.10;;;3.53;;
1693;SDS011;844;47.058;15.472;2022-10-26T00:19:23;3.37;;;3.07;;
1693;SDS011;844;47.058;15.472;2022-10-26T00:21:52;2.83;;;2.20;;
1693;SDS011;844;47.058;15.472;2022-10-26T00:24:21;4.53;;;2.17;;
1693;SDS011;844;47.058;15.472;2022-10-26T00:26:52;3.83;;;1.97;;
1693;SDS011;844;47.058;15.472;2022-10-26T00:29:22;2.60;;;2.33;;
1693;SDS011;844;47.058;15.472;2022-10-26T00:31:52;2.80;;;2.60;;
1693;SDS011;844;47.058;15.472;2022-10-26T00:34:21;4.23;;;2.57;;
1693;SDS011;844;47.058;15.472;2022-10-26T00:36:50;5.23;;;2.27;;
1693;SDS011;844;47.058;15.472;2022-10-26T00:39:20;3.40;;;1.90;;
1693;SDS011;844;47.058;15.472;2022-10-26T00:41:49;2.73;;;2.03;;
1693;SDS011;844;47.058;15.472;2022-10-26T00:47:30;4.57;;;2.30;;
1693;SDS011;844;47.058;15.472;2022-10-26T00:50:07;2.37;;;2.17;;
1693;SDS011;844;47.058;15.472;2022-10-26T00:52:38;6.00;;;2.30;;
1693;SDS011;844;47.058;15.472;2022-10-26T00:55:07;2.13;;;1.80;;
1693;SDS011;844;47.058;15.472;2022-10-26T00:57:37;2.30;;;2.10;;
1693;SDS011;844;47.058;15.472;2022-10-26T01:00:10;3.60;;;2.83;;
1693;SDS011;844;47.058;15.472;2022-10-26T01:02:39;3.17;;;2.17;;
1693;SDS011;844;47.058;15.472;2022-10-26T01:05:09;2.47;;;2.27;;
1693;SDS011;844;47.058;15.472;2022-10-26T01:07:40;2.77;;;2.43;;
1693;SDS011;844;47.058;15.472;2022-10-26T01:10:09;4.50;;;2.27;;
1693;SDS011;844;47.058;15.472;2022-10-26T01:12:39;4.77;;;2.20;;
1693;SDS011;844;47.058;15.472;2022-10-26T01:15:11;4.40;;;2.17;;
1693;SDS011;844;47.058;15.472;2022-10-26T01:17:43;2.87;;;2.10;;
1693;SDS011;844;47.058;15.472;2022-10-26T01:23:36;2.67;;;2.10;;
1693;SDS011;844;47.058;15.472;2022-10-26T01:26:17;4.80;;;2.30;;
1693;SDS011;844;47.058;15.472;2022-10-26T01:29:08;2.67;;;2.47;;
1693;SDS011;844;47.058;15.472;2022-10-26T01:31:46;2.33;;;2.13;;
1693;SDS011;844;47.058;15.472;2022-10-26T01:34:20;4.27;;;2.30;;
1693;SDS011;844;47.058;15.472;2022-10-26T01:36:54;6.20;;;3.07;;
1693;SDS011;844;47.058;15.472;2022-10-26T01:39:26;4.07;;;2.30;;
1693;SDS011;844;47.058;15.472;2022-10-26T01:41:59;4.80;;;2.50;;
1693;SDS011;844;47.058;15.472;2022-10-26T01:44:30;3.60;;;2.40;;
1693;SDS011;844;47.058;15.472;2022-10-26T01:47:04;2.23;;;2.03;;
1693;SDS011;844;47.058;15.472;2022-10-26T01:49:37;2.80;;;2.23;;
1693;SDS011;844;47.058;15.472;2022-10-26T01:52:08;6.50;;;3.40;;
1693;SDS011;844;47.058;15.472;2022-10-26T01:54:37;3.77;;;2.10;;
1693;SDS011;844;47.058;15.472;2022-10-26T01:57:07;2.40;;;2.23;;
1693;SDS011;844;47.058;15.472;2022-10-26T01:59:52;7.13;;;2.43;;
1693;SDS011;844;47.058;15.472;2022-10-26T02:05:51;2.50;;;2.30;;
1693;SDS011;844;47.058;15.472;2022-10-26T02:08:34;5.83;;;2.00;;
1693;SDS011;844;47.058;15.472;2022-10-26T02:11:14;6.80;;;2.10;;
1693;SDS011;844;47.058;15.472;2022-10-26T02:13:51;4.07;;;2.13;;
1693;SDS011;844;47.058;15.472;2022-10-26T02:16:23;2.80;;;2.60;;
1693;SDS011;844;47.058;15.472;2022-10-26T02:18:57;2.87;;;2.10;;
1693;SDS011;844;47.058;15.472;2022-10-26T02:21:30;2.80;;;2.00;;
1693;SDS011;844;47.058;15.472;2022-10-26T02:24:04;6.20;;;2.87;;
1693;SDS011;844;47.058;15.472;2022-10-26T02:26:35;5.03;;;2.33;;
1693;SDS011;844;47.058;15.472;2022-10-26T02:29:07;2.53;;;2.20;;
1693;SDS011;844;47.058;15.472;2022-10-26T02:31:39;2.47;;;1.97;;
1693;SDS011;844;47.058;15.472;2022-10-26T02:34:11;2.40;;;1.70;;
1693;SDS011;844;47.058;15.472;2022-10-26T02:36:42;3.57;;;2.20;;
1693;SDS011;844;47.058;15.472;2022-10-26T02:39:13;3.00;;;2.17;;
1693;SDS011;844;47.058;15.472;2022-10-26T02:41:44;2.53;;;2.33;;
1693;SDS011;844;47.058;15.472;2022-10-26T02:44:17;4.07;;;2.63;;
1693;SDS011;844;47.058;15.472;2022-10-26T02:46:50;5.53;;;2.60;;
1693;SDS011;844;47.058;15.472;2022-10-26T02:49:21;4.30;;;2.30;;
1693;SDS011;844;47.058;15.472;2022-10-26T02:51:53;3.03;;;2.70;;
1693;SDS011;844;47.058;15.472;2022-10-26T02:54:30;3.77;;;2.50;;
1693;SDS011;844;47.058;15.472;2022-10-26T02:57:04;2.87;;;2.40;;
1693;SDS011;844;47.058;15.472;2022-10-26T02:59:36;2.70;;;2.13;;
1693;SDS011;844;47.058;15.472;2022-10-26T03:02:08;2.57;;;2.30;;
1693;SDS011;844;47.058;15.472;2022-10-26T03:04:39;3.93;;;2.53;;
1693;SDS011;844;47.058;15.472;2022-10-26T03:07:09;4.03;;;2.07;;
1693;SDS011;844;47.058;15.472;2022-10-26T03:09:38;3.63;;;2.57;;
1693;SDS011;844;47.058;15.472;2022-10-26T03:12:07;2.43;;;2.23;;
1693;SDS011;844;47.058;15.472;2022-10-26T03:14:37;2.80;;;2.17;;
1693;SDS011;844;47.058;15.472;2022-10-26T03:17:07;3.67;;;2.50;;
1693;SDS011;844;47.058;15.472;2022-10-26T03:19:36;2.47;;;2.27;;
1693;SDS011;844;47.058;15.472;2022-10-26T03:22:07;4.30;;;3.17;;
1693;SDS011;844;47.058;15.472;2022-10-26T03:24:37;3.23;;;2.97;;
1693;SDS011;844;47.058;15.472;2022-10-26T03:27:06;3.67;;;2.90;;
1693;SDS011;844;47.058;15.472;2022-10-26T03:29:35;2.60;;;2.40;;
1693;SDS011;844;47.058;15.472;2022-10-26T03:32:04;2.97;;;2.63;;
1693;SDS011;844;47.058;15.472;2022-10-26T03:34:34;3.63;;;3.30;;
1693;SDS011;844;47.058;15.472;2022-10-26T03:37:03;3.17;;;2.80;;
1693;SDS011;844;47.058;15.472;2022-10-26T03:39:34;5.67;;;3.50;;
1693;SDS011;844;47.058;15.472;2022-10-26T03:42:03;3.60;;;3.30;;
1693;SDS011;844;47.058;15.472;2022-10-26T03:44:33;3.13;;;2.80;;
1693;SDS011;844;47.058;15.472;2022-10-26T03:47:02;2.60;;;2.40;;
1693;SDS011;844;47.058;15.472;2022-10-26T03:49:32;5.90;;;2.70;;
1693;SDS011;844;47.058;15.472;2022-10-26T03:52:02;2.80;;;2.60;;
1693;SDS011;844;47.058;15.472;2022-10-26T03:54:31;4.77;;;3.70;;
1693;SDS011;844;47.058;15.472;2022-10-26T03:57:02;4.53;;;2.30;;
1693;SDS011;844;47.058;15.472;2022-10-26T03:59:32;3.53;;;2.73;;
1693;SDS011;844;47.058;15.472;2022-10-26T04:02:01;3.67;;;3.37;;
1693;SDS011;844;47.058;15.472;2022-10-26T04:04:30;2.97;;;2.20;;
1693;SDS011;844;47.058;15.472;2022-10-26T04:07:00;3.80;;;3.40;;
1693;SDS011;844;47.058;15.472;2022-10-26T04:09:29;4.53;;;3.13;;
1693;SDS011;844;47.058;15.472;2022-10-26T04:12:00;3.73;;;2.60;;
1693;SDS011;844;47.058;15.472;2022-10-26T04:14:29;3.63;;;2.60;;
1693;SDS011;844;47.058;15.472;2022-10-26T04:16:59;3.87;;;2.90;;
1693;SDS011;844;47.058;15.472;2022-10-26T04:19:28;3.07;;;2.53;;
1693;SDS011;844;47.058;15.472;2022-10-26T04:21:57;3.93;;;2.87;;
1693;SDS011;844;47.058;15.472;2022-10-26T04:24:26;4.30;;;2.57;;
1693;SDS011;844;47.058;15.472;2022-10-26T04:26:57;5.93;;;2.70;;
1693;SDS011;844;47.058;15.472;2022-10-26T04:29:27;7.67;;;2.97;;
1693;SDS011;844;47.058;15.472;2022-10-26T04:31:57;6.63;;;3.17;;
1693;SDS011;844;47.058;15.472;2022-10-26T04:34:26;4.70;;;2.80;;
1693;SDS011;844;47.058;15.472;2022-10-26T04:36:56;2.90;;;2.63;;
1693;SDS011;844;47.058;15.472;2022-10-26T04:39:26;4.20;;;2.57;;
1693;SDS011;844;47.058;15.472;2022-10-26T04:41:56;4.17;;;3.10;;
1693;SDS011;844;47.058;15.472;2022-10-26T04:44:30;3.50;;;3.20;;
1693;SDS011;844;47.058;15.472;2022-10-26T04:47:00;4.67;;;3.20;;
1693;SDS011;844;47.058;15.472;2022-10-26T04:49:29;3.77;;;3.30;;
1693;SDS011;844;47.058;15.472;2022-10-26T04:51:58;4.50;;;2.83;;
1693;SDS011;844;47.058;15.472;2022-10-26T04:54:28;6.03;;;3.20;;
1693;SDS011;844;47.058;15.472;2022-10-26T04:56:57;3.67;;;3.20;;
1693;SDS011;844;47.058;15.472;2022-10-26T04:59:27;4.40;;;3.30;;
1693;SDS011;844;47.058;15.472;2022-10-26T05:01:58;4.33;;;3.43;;
1693;SDS011;844;47.058;15.472;2022-10-26T05:04:28;6.20;;;3.93;;
1693;SDS011;844;47.058;15.472;2022-10-26T05:06:57;5.93;;;3.80;;
1693;SDS011;844;47.058;15.472;2022-10-26T05:09:26;3.47;;;3.17;;
1693;SDS011;844;47.058;15.472;2022-10-26T05:11:56;8.23;;;3.77;;
1693;SDS011;844;47.058;15.472;2022-10-26T05:14:25;3.47;;;3.10;;
1693;SDS011;844;47.058;15.472;2022-10-26T05:16:55;4.10;;;3.70;;
1693;SDS011;844;47.058;15.472;2022-10-26T05:19:25;5.47;;;3.37;;
1693;SDS011;844;47.058;15.472;2022-10-26T05:21:55;4.20;;;3.60;;
1693;SDS011;844;47.058;15.472;2022-10-26T05:24:26;5.00;;;4.10;;
1693;SDS011;844;47.058;15.472;2022-10-26T05:26:55;5.70;;;4.43;;
1693;SDS011;844;47.058;15.472;2022-10-26T05:29:24;6.90;;;4.20;;
1693;SDS011;844;47.058;15.472;2022-10-26T05:31:53;5.30;;;3.40;;
1693;SDS011;844;47.058;15.472;2022-10-26T05:34:23;5.93;;;4.67;;
1693;SDS011;844;47.058;15.472;2022-10-26T05:36:54;4.70;;;3.57;;
1693;SDS011;844;47.058;15.472;2022-10-26T05:39:24;4.30;;;3.83;;
1693;SDS011;844;47.058;15.472;2022-10-26T05:41:55;5.37;;;4.17;;
1693;SDS011;844;47.058;15.472;2022-10-26T05:44:26;4.53;;;3.83;;
1693;SDS011;844;47.058;15.472;2022-10-26T05:46:56;7.27;;;3.73;;
1693;SDS011;844;47.058;15.472;2022-10-26T05:49:27;4.87;;;4.27;;
1693;SDS011;844;47.058;15.472;2022-10-26T05:51:56;4.07;;;3.67;;
1693;SDS011;844;47.058;15.472;2022-10-26T05:54:26;4.00;;;3.60;;
1693;SDS011;844;47.058;15.472;2022-10-26T05:56:56;4.50;;;3.90;;
1693;SDS011;844;47.058;15.472;2022-10-26T05:59:26;3.47;;;3.17;;
1693;SDS011;844;47.058;15.472;2022-10-26T06:01:59;5.70;;;4.80;;
1693;SDS011;844;47.058;15.472;2022-10-26T06:04:36;3.67;;;3.13;;
1693;SDS011;844;47.058;15.472;2022-10-26T06:07:09;5.20;;;4.60;;
1693;SDS011;844;47.058;15.472;2022-10-26T06:09:40;4.63;;;3.70;;
1693;SDS011;844;47.058;15.472;2022-10-26T06:12:11;6.07;;;4.07;;
1693;SDS011;844;47.058;15.472;2022-10-26T06:14:46;5.03;;;4.30;;
1693;SDS011;844;47.058;15.472;2022-10-26T06:17:28;5.53;;;4.30;;
1693;SDS011;844;47.058;15.472;2022-10-26T06:20:25;10.60;;;4.83;;
1693;SDS011;844;47.058;15.472;2022-10-26T06:23:06;5.93;;;4.30;;
1693;SDS011;844;47.058;15.472;2022-10-26T06:25:46;5.00;;;4.00;;
1693;SDS011;844;47.058;15.472;2022-10-26T06:28:27;7.23;;;4.13;;
1693;SDS011;844;47.058;15.472;2022-10-26T06:31:05;5.47;;;4.93;;
1693;SDS011;844;47.058;15.472;2022-10-26T06:33:35;4.67;;;4.27;;
1693;SDS011;844;47.058;15.472;2022-10-26T06:36:09;6.90;;;6.20;;
1693;SDS011;844;47.058;15.472;2022-10-26T06:38:43;5.53;;;4.93;;
1693;SDS011;844;47.058;15.472;2022-10-26T06:41:13;7.57;;;4.77;;
1693;SDS011;844;47.058;15.472;2022-10-26T06:43:45;4.67;;;4.27;;
1693;SDS011;844;47.058;15.472;2022-10-26T06:46:21;5.77;;;5.27;;
1693;SDS011;844;47.058;15.472;2022-10-26T06:48:59;7.37;;;6.67;;
1693;SDS011;844;47.058;15.472;2022-10-26T06:51:37;8.33;;;7.53;;
1693;SDS011;844;47.058;15.472;2022-10-26T06:54:12;8.00;;;6.10;;
1693;SDS011;844;47.058;15.472;2022-10-26T06:56:44;6.20;;;5.60;;
1693;SDS011;844;47.058;15.472;2022-10-26T06:59:14;6.23;;;5.60;;
1693;SDS011;844;47.058;15.472;2022-10-26T07:01:47;5.97;;;5.47;;
1693;SDS011;844;47.058;15.472;2022-10-26T07:04:17;5.53;;;5.13;;
1693;SDS011;844;47.058;15.472;2022-10-26T07:06:48;6.50;;;5.43;;
1693;SDS011;844;47.058;15.472;2022-10-26T07:09:17;7.73;;;5.80;;
1693;SDS011;844;47.058;15.472;2022-10-26T07:11:47;8.50;;;7.80;;
1693;SDS011;844;47.058;15.472;2022-10-26T07:14:16;7.77;;;6.97;;
1693;SDS011;844;47.058;15.472;2022-10-26T07:16:46;6.07;;;5.47;;
1693;SDS011;844;47.058;15.472;2022-10-26T07:19:16;8.20;;;7.40;;
1693;SDS011;844;47.058;15.472;2022-10-26T07:21:45;6.50;;;5.90;;
1693;SDS011;844;47.058;15.472;2022-10-26T07:24:16;7.63;;;6.87;;
1693;SDS011;844;47.058;15.472;2022-10-26T07:26:45;7.83;;;5.93;;
1693;SDS011;844;47.058;15.472;2022-10-26T07:29:15;4.80;;;4.20;;
1693;SDS011;844;47.058;15.472;2022-10-26T07:31:45;5.30;;;4.80;;
1693;SDS011;844;47.058;15.472;2022-10-26T07:34:14;5.07;;;4.30;;
1693;SDS011;844;47.058;15.472;2022-10-26T07:36:43;5.13;;;4.63;;
1693;SDS011;844;47.058;15.472;2022-10-26T07:39:14;5.30;;;4.90;;
1693;SDS011;844;47.058;15.472;2022-10-26T07:41:44;4.93;;;4.47;;
1693;SDS011;844;47.058;15.472;2022-10-26T07:44:14;4.87;;;4.47;;
1693;SDS011;844;47.058;15.472;2022-10-26T07:46:43;5.20;;;4.80;;
1693;SDS011;844;47.058;15.472;2022-10-26T07:49:13;4.60;;;4.30;;
1693;SDS011;844;47.058;15.472;2022-10-26T07:51:45;5.80;;;5.20;;
1693;SDS011;844;47.058;15.472;2022-10-26T07:54:16;6.37;;;5.03;;
1693;SDS011;844;47.058;15.472;2022-10-26T07:56:47;5.97;;;5.37;;
1693;SDS011;844;47.058;15.472;2022-10-26T07:59:18;6.27;;;5.63;;
1693;SDS011;844;47.058;15.472;2022-10-26T08:01:47;4.80;;;4.40;;
1693;SDS011;844;47.058;15.472;2022-10-26T08:04:17;4.97;;;4.53;;
1693;SDS011;844;47.058;15.472;2022-10-26T08:06:46;6.33;;;5.77;;
1693;SDS011;844;47.058;15.472;2022-10-26T08:09:17;6.20;;;5.47;;
1693;SDS011;844;47.058;15.472;2022-10-26T08:11:47;5.90;;;4.87;;
1693;SDS011;844;47.058;15.472;2022-10-26T08:14:16;6.93;;;4.43;;
1693;SDS011;844;47.058;15.472;2022-10-26T08:16:46;6.53;;;5.93;;
1693;SDS011;844;47.058;15.472;2022-10-26T08:19:18;6.20;;;5.60;;
1693;SDS011;844;47.058;15.472;2022-10-26T08:21:48;5.50;;;5.00;;
1693;SDS011;844;47.058;15.472;2022-10-26T08:24:21;7.47;;;6.87;;
1693;SDS011;844;47.058;15.472;2022-10-26T08:26:50;8.20;;;7.40;;
1693;SDS011;844;47.058;15.472;2022-10-26T08:29:20;7.97;;;7.27;;
1693;SDS011;844;47.058;15.472;2022-10-26T08:31:49;8.00;;;7.30;;
1693;SDS011;844;47.058;15.472;2022-10-26T08:34:19;11.70;;;7.53;;
1693;SDS011;844;47.058;15.472;2022-10-26T08:36:48;8.00;;;7.40;;
1693;SDS011;844;47.058;15.472;2022-10-26T08:39:19;6.90;;;6.30;;
1693;SDS011;844;47.058;15.472;2022-10-26T08:41:50;6.43;;;5.80;;
1693;SDS011;844;47.058;15.472;2022-10-26T08:44:24;7.80;;;6.33;;
1693;SDS011;844;47.058;15.472;2022-10-26T08:46:57;7.13;;;6.53;;
1693;SDS011;844;47.058;15.472;2022-10-26T08:49:31;8.17;;;7.37;;
1693;SDS011;844;47.058;15.472;2022-10-26T08:52:08;9.53;;;8.10;;
1693;SDS011;844;47.058;15.472;2022-10-26T08:54:43;8.63;;;7.63;;
1693;SDS011;844;47.058;15.472;2022-10-26T08:57:17;11.57;;;7.20;;
1693;SDS011;844;47.058;15.472;2022-10-26T08:59:51;8.93;;;8.13;;
1693;SDS011;844;47.058;15.472;2022-10-26T09:02:23;10.93;;;8.40;;
1693;SDS011;844;47.058;15.472;2022-10-26T09:04:53;8.73;;;7.80;;
1693;SDS011;844;47.058;15.472;2022-10-26T09:07:31;8.83;;;8.07;;
1693;SDS011;844;47.058;15.472;2022-10-26T09:10:15;8.20;;;7.50;;
1693;SDS011;844;47.058;15.472;2022-10-26T09:12:59;7.47;;;6.50;;
1693;SDS011;844;47.058;15.472;2022-10-26T09:15:36;8.23;;;7.43;;
1693;SDS011;844;47.058;15.472;2022-10-26T09:18:16;7.07;;;6.40;;
1693;SDS011;844;47.058;15.472;2022-10-26T09:20:53;7.77;;;7.10;;
1693;SDS011;844;47.058;15.472;2022-10-26T09:23:37;7.90;;;7.13;;
1693;SDS011;844;47.058;15.472;2022-10-26T09:26:18;7.50;;;6.73;;
1693;SDS011;844;47.058;15.472;2022-10-26T09:28:55;10.57;;;7.20;;
1693;SDS011;844;47.058;15.472;2022-10-26T09:31:26;12.07;;;7.27;;
1693;SDS011;844;47.058;15.472;2022-10-26T09:34:15;7.20;;;6.50;;
1693;SDS011;844;47.058;15.472;2022-10-26T09:36:51;7.70;;;6.90;;
1693;SDS011;844;47.058;15.472;2022-10-26T09:39:27;13.03;;;6.50;;
1693;SDS011;844;47.058;15.472;2022-10-26T09:42:03;7.77;;;6.63;;
1693;SDS011;844;47.058;15.472;2022-10-26T09:44:41;8.90;;;6.77;;
1693;SDS011;844;47.058;15.472;2022-10-26T09:47:13;8.87;;;7.33;;
1693;SDS011;844;47.058;15.472;2022-10-26T09:49:48;7.53;;;6.83;;
1693;SDS011;844;47.058;15.472;2022-10-26T09:52:19;12.33;;;6.87;;
1693;SDS011;844;47.058;15.472;2022-10-26T09:54:49;7.37;;;6.00;;
1693;SDS011;844;47.058;15.472;2022-10-26T09:57:20;7.13;;;6.33;;
1693;SDS011;844;47.058;15.472;2022-10-26T09:59:50;17.50;;;7.33;;
1693;SDS011;844;47.058;15.472;2022-10-26T10:02:31;7.40;;;6.50;;
1693;SDS011;844;47.058;15.472;2022-10-26T10:05:02;7.83;;;7.03;;
1693;SDS011;844;47.058;15.472;2022-10-26T10:08:15;8.43;;;6.70;;
1693;SDS011;844;47.058;15.472;2022-10-26T10:10:55;8.80;;;7.30;;
1693;SDS011;844;47.058;15.472;2022-10-26T10:13:28;7.93;;;7.23;;
1693;SDS011;844;47.058;15.472;2022-10-26T10:16:01;8.87;;;7.53;;
1693;SDS011;844;47.058;15.472;2022-10-26T10:18:32;7.40;;;6.80;;
1693;SDS011;844;47.058;15.472;2022-10-26T10:21:04;7.50;;;6.80;;
1693;SDS011;844;47.058;15.472;2022-10-26T10:23:35;8.87;;;8.07;;
1693;SDS011;844;47.058;15.472;2022-10-26T10:26:06;7.60;;;6.90;;
1693;SDS011;844;47.058;15.472;2022-10-26T10:28:40;7.27;;;6.57;;
1693;SDS011;844;47.058;15.472;2022-10-26T10:31:20;8.03;;;7.33;;
1693;SDS011;844;47.058;15.472;2022-10-26T10:33:50;8.37;;;7.50;;
1693;SDS011;844;47.058;15.472;2022-10-26T10:36:21;7.40;;;6.70;;
1693;SDS011;844;47.058;15.472;2022-10-26T10:38:52;6.73;;;6.13;;
1693;SDS011;844;47.058;15.472;2022-10-26T10:41:23;6.93;;;5.70;;
1693;SDS011;844;47.058;15.472;2022-10-26T10:43:56;7.50;;;6.50;;
1693;SDS011;844;47.058;15.472;2022-10-26T10:46:30;6.10;;;5.50;;
1693;SDS011;844;47.058;15.472;2022-10-26T10:49:01;6.03;;;5.43;;
1693;SDS011;844;47.058;15.472;2022-10-26T10:51:34;6.20;;;5.60;;
1693;SDS011;844;47.058;15.472;2022-10-26T10:54:06;5.80;;;5.23;;
1693;SDS011;844;47.058;15.472;2022-10-26T10:56:50;8.80;;;5.90;;
1693;SDS011;844;47.058;15.472;2022-10-26T11:02:45;5.10;;;4.70;;
1693;SDS011;844;47.058;15.472;2022-10-26T11:05:48;9.63;;;6.00;;
1693;SDS011;844;47.058;15.472;2022-10-26T11:08:27;5.70;;;5.20;;
1693;SDS011;844;47.058;15.472;2022-10-26T11:10:59;7.43;;;5.23;;
1693;SDS011;844;47.058;15.472;2022-10-26T11:13:32;6.00;;;5.40;;
1693;SDS011;844;47.058;15.472;2022-10-26T11:16:13;5.43;;;4.67;;
1693;SDS011;844;47.058;15.472;2022-10-26T11:18:47;5.77;;;4.57;;
1693;SDS011;844;47.058;15.472;2022-10-26T11:21:21;4.93;;;4.10;;
1693;SDS011;844;47.058;15.472;2022-10-26T11:23:59;5.83;;;4.80;;
1693;SDS011;844;47.058;15.472;2022-10-26T11:26:38;7.07;;;4.93;;
1693;SDS011;844;47.058;15.472;2022-10-26T11:29:16;5.90;;;5.37;;
1693;SDS011;844;47.058;15.472;2022-10-26T11:32:04;4.90;;;4.40;;
1693;SDS011;844;47.058;15.472;2022-10-26T11:34:39;4.20;;;3.83;;
1693;SDS011;844;47.058;15.472;2022-10-26T11:37:14;4.60;;;3.90;;
1693;SDS011;844;47.058;15.472;2022-10-26T11:39:57;5.20;;;4.70;;
1693;SDS011;844;47.058;15.472;2022-10-26T11:42:30;7.67;;;4.70;;
1693;SDS011;844;47.058;15.472;2022-10-26T11:45:08;4.43;;;4.00;;
1693;SDS011;844;47.058;15.472;2022-10-26T11:47:41;5.80;;;4.90;;
1693;SDS011;844;47.058;15.472;2022-10-26T11:50:16;5.00;;;3.83;;
1693;SDS011;844;47.058;15.472;2022-10-26T11:52:48;4.57;;;4.17;;
1693;SDS011;844;47.058;15.472;2022-10-26T11:55:21;4.27;;;3.97;;
1693;SDS011;844;47.058;15.472;2022-10-26T11:57:51;4.60;;;4.20;;
1693;SDS011;844;47.058;15.472;2022-10-26T12:00:22;6.77;;;4.07;;
1693;SDS011;844;47.058;15.472;2022-10-26T12:02:55;4.17;;;3.87;;
1693;SDS011;844;47.058;15.472;2022-10-26T12:05:33;7.23;;;4.67;;
1693;SDS011;844;47.058;15.472;2022-10-26T12:08:10;5.20;;;4.70;;
1693;SDS011;844;47.058;15.472;2022-10-26T12:10:45;8.30;;;4.93;;
1693;SDS011;844;47.058;15.472;2022-10-26T12:13:18;4.50;;;4.10;;
1693;SDS011;844;47.058;15.472;2022-10-26T12:15:54;4.40;;;4.10;;
1693;SDS011;844;47.058;15.472;2022-10-26T12:18:35;5.47;;;4.97;;
1693;SDS011;844;47.058;15.472;2022-10-26T12:21:24;4.13;;;3.83;;
1693;SDS011;844;47.058;15.472;2022-10-26T12:23:56;5.43;;;4.77;;
1693;SDS011;844;47.058;15.472;2022-10-26T12:35:42;4.57;;;4.17;;
1693;SDS011;844;47.058;15.472;2022-10-26T12:41:21;6.63;;;4.10;;
1693;SDS011;844;47.058;15.472;2022-10-26T12:43:58;5.43;;;4.93;;
1693;SDS011;844;47.058;15.472;2022-10-26T12:46:37;5.30;;;4.80;;
1693;SDS011;844;47.058;15.472;2022-10-26T12:55:41;5.50;;;5.00;;
1693;SDS011;844;47.058;15.472;2022-10-26T13:01:51;5.73;;;5.23;;
1693;SDS011;844;47.058;15.472;2022-10-26T13:04:42;5.60;;;5.10;;
1693;SDS011;844;47.058;15.472;2022-10-26T13:07:35;7.33;;;4.70;;
1693;SDS011;844;47.058;15.472;2022-10-26T13:10:17;8.33;;;5.37;;
1693;SDS011;844;47.058;15.472;2022-10-26T13:12:51;6.57;;;5.20;;
1693;SDS011;844;47.058;15.472;2022-10-26T13:15:23;7.70;;;5.07;;
1693;SDS011;844;47.058;15.472;2022-10-26T13:17:55;6.37;;;4.97;;
1693;SDS011;844;47.058;15.472;2022-10-26T13:20:28;4.77;;;4.23;;
1693;SDS011;844;47.058;15.472;2022-10-26T13:22:58;4.60;;;4.20;;
1693;SDS011;844;47.058;15.472;2022-10-26T13:25:34;4.63;;;4.23;;
1693;SDS011;844;47.058;15.472;2022-10-26T13:28:04;6.60;;;4.97;;
1693;SDS011;844;47.058;15.472;2022-10-26T13:30:42;6.73;;;5.07;;
1693;SDS011;844;47.058;15.472;2022-10-26T13:33:23;4.73;;;4.23;;
1693;SDS011;844;47.058;15.472;2022-10-26T13:36:00;4.13;;;3.83;;
1693;SDS011;844;47.058;15.472;2022-10-26T13:38:34;5.13;;;4.40;;
1693;SDS011;844;47.058;15.472;2022-10-26T13:41:09;4.20;;;3.80;;
1693;SDS011;844;47.058;15.472;2022-10-26T13:43:49;4.80;;;4.40;;
1693;SDS011;844;47.058;15.472;2022-10-26T13:46:22;4.30;;;3.90;;
1693;SDS011;844;47.058;15.472;2022-10-26T13:48:57;5.80;;;5.20;;
1693;SDS011;844;47.058;15.472;2022-10-26T13:51:32;5.13;;;4.73;;
1693;SDS011;844;47.058;15.472;2022-10-26T13:54:09;4.67;;;4.27;;
1693;SDS011;844;47.058;15.472;2022-10-26T13:56:47;14.30;;;4.40;;
1693;SDS011;844;47.058;15.472;2022-10-26T13:59:26;5.63;;;4.30;;
1693;SDS011;844;47.058;15.472;2022-10-26T14:02:07;4.37;;;3.97;;
1693;SDS011;844;47.058;15.472;2022-10-26T14:04:44;7.20;;;5.40;;
1693;SDS011;844;47.058;15.472;2022-10-26T14:07:15;5.43;;;4.40;;
1693;SDS011;844;47.058;15.472;2022-10-26T14:09:50;5.23;;;4.57;;
1693;SDS011;844;47.058;15.472;2022-10-26T14:12:22;4.97;;;4.50;;
1693;SDS011;844;47.058;15.472;2022-10-26T14:14:56;4.70;;;4.20;;
1693;SDS011;844;47.058;15.472;2022-10-26T14:17:30;5.57;;;5.07;;
1693;SDS011;844;47.058;15.472;2022-10-26T14:20:00;5.47;;;4.97;;
1693;SDS011;844;47.058;15.472;2022-10-26T14:22:31;5.00;;;4.50;;
1693;SDS011;844;47.058;15.472;2022-10-26T14:25:01;4.13;;;3.83;;
1693;SDS011;844;47.058;15.472;2022-10-26T14:27:36;4.57;;;4.17;;
1693;SDS011;844;47.058;15.472;2022-10-26T14:30:19;5.80;;;4.97;;
1693;SDS011;844;47.058;15.472;2022-10-26T14:32:49;7.63;;;5.37;;
1693;SDS011;844;47.058;15.472;2022-10-26T14:35:20;4.87;;;4.47;;
1693;SDS011;844;47.058;15.472;2022-10-26T14:37:55;5.13;;;4.73;;
1693;SDS011;844;47.058;15.472;2022-10-26T14:40:27;4.13;;;3.77;;
1693;SDS011;844;47.058;15.472;2022-10-26T14:43:02;6.23;;;3.57;;
1693;SDS011;844;47.058;15.472;2022-10-26T14:45:33;5.00;;;4.60;;
1693;SDS011;844;47.058;15.472;2022-10-26T14:48:22;7.13;;;4.83;;
1693;SDS011;844;47.058;15.472;2022-10-26T14:50:59;4.37;;;3.97;;
1693;SDS011;844;47.058;15.472;2022-10-26T14:53:31;5.30;;;4.80;;
1693;SDS011;844;47.058;15.472;2022-10-26T14:56:15;5.33;;;4.83;;
1693;SDS011;844;47.058;15.472;2022-10-26T14:58:49;5.37;;;4.57;;
1693;SDS011;844;47.058;15.472;2022-10-26T15:01:26;6.17;;;4.60;;
1693;SDS011;844;47.058;15.472;2022-10-26T15:04:04;4.47;;;4.07;;
1693;SDS011;844;47.058;15.472;2022-10-26T15:06:38;5.20;;;4.70;;
1693;SDS011;844;47.058;15.472;2022-10-26T15:11:58;5.13;;;4.63;;
1693;SDS011;844;47.058;15.472;2022-10-26T15:14:31;11.90;;;5.30;;
1693;SDS011;844;47.058;15.472;2022-10-26T15:17:02;4.70;;;3.80;;
1693;SDS011;844;47.058;15.472;2022-10-26T15:19:31;5.40;;;4.90;;
1693;SDS011;844;47.058;15.472;2022-10-26T15:22:14;5.17;;;4.43;;
1693;SDS011;844;47.058;15.472;2022-10-26T15:24:48;5.40;;;4.00;;
1693;SDS011;844;47.058;15.472;2022-10-26T15:27:20;4.87;;;4.47;;
1693;SDS011;844;47.058;15.472;2022-10-26T15:30:01;6.37;;;4.90;;
1693;SDS011;844;47.058;15.472;2022-10-26T15:32:39;6.60;;;5.13;;
1693;SDS011;844;47.058;15.472;2022-10-26T15:38:01;4.23;;;3.83;;
1693;SDS011;844;47.058;15.472;2022-10-26T15:40:31;8.30;;;4.00;;
1693;SDS011;844;47.058;15.472;2022-10-26T15:43:02;6.10;;;4.37;;
1693;SDS011;844;47.058;15.472;2022-10-26T15:45:34;4.50;;;4.07;;
1693;SDS011;844;47.058;15.472;2022-10-26T15:48:18;4.80;;;4.40;;
1693;SDS011;844;47.058;15.472;2022-10-26T15:50:50;4.93;;;4.43;;
1693;SDS011;844;47.058;15.472;2022-10-26T15:53:20;5.87;;;4.93;;
1693;SDS011;844;47.058;15.472;2022-10-26T15:55:54;5.17;;;4.47;;
1693;SDS011;844;47.058;15.472;2022-10-26T15:58:30;4.00;;;3.70;;
1693;SDS011;844;47.058;15.472;2022-10-26T16:01:01;9.20;;;5.30;;
1693;SDS011;844;47.058;15.472;2022-10-26T16:03:30;7.70;;;4.37;;
1693;SDS011;844;47.058;15.472;2022-10-26T16:06:00;4.87;;;4.43;;
1693;SDS011;844;47.058;15.472;2022-10-26T16:08:31;4.73;;;4.20;;
1693;SDS011;844;47.058;15.472;2022-10-26T16:11:00;8.40;;;4.90;;
1693;SDS011;844;47.058;15.472;2022-10-26T16:13:31;6.67;;;5.80;;
1693;SDS011;844;47.058;15.472;2022-10-26T16:16:01;6.70;;;5.63;;
1693;SDS011;844;47.058;15.472;2022-10-26T16:18:31;6.97;;;6.33;;
1693;SDS011;844;47.058;15.472;2022-10-26T16:21:01;9.90;;;7.63;;
1693;SDS011;844;47.058;15.472;2022-10-26T16:23:30;10.50;;;6.13;;
1693;SDS011;844;47.058;15.472;2022-10-26T16:26:00;8.43;;;6.80;;
1693;SDS011;844;47.058;15.472;2022-10-26T16:28:32;9.50;;;7.10;;
1693;SDS011;844;47.058;15.472;2022-10-26T16:31:05;6.73;;;6.13;;
1693;SDS011;844;47.058;15.472;2022-10-26T16:33:35;7.70;;;7.00;;